Time;durP1;ratioP1;P1;durP2;ratioP2;P2;SDS_P1;SDS_P2;PMS_P1;PMS_P2;Temp;Humidity;BMP_temperature;BMP_pressure;BME280_temperature;BME280_humidity;BME280_pressure;Samples;Min_cycle;Max_cycle;Signal;HPM_P1;HPM_P2
2023/05/03 16:29:33;;;;;;;2.35;0.93;;;25.30;31.40;;;;;;5070753;28;20134;-76
2023/05/03 16:31:59;;;;;;;1.77;1.15;;;25.10;31.50;;;;;;5068932;28;20059;-77
2023/05/03 16:34:25;;;;;;;2.83;0.93;;;24.90;31.60;;;;;;5069814;28;20021;-77
2023/05/03 16:36:51;;;;;;;0.95;0.80;;;24.80;31.80;;;;;;5070133;28;20108;-76
2023/05/03 16:39:16;;;;;;;0.98;0.80;;;24.80;31.90;;;;;;5070361;28;20143;-76
2023/05/03 16:41:42;;;;;;;4.57;1.00;;;24.70;32.00;;;;;;5069944;28;20032;-76
2023/05/03 16:44:08;;;;;;;2.85;0.90;;;24.60;32.10;;;;;;5070238;28;20482;-76
2023/05/03 16:46:38;;;;;;;4.03;1.20;;;24.50;32.30;;;;;;5070076;28;20021;-76
2023/05/03 16:49:05;;;;;;;2.45;0.95;;;24.40;32.40;;;;;;5068720;28;20044;-76
2023/05/03 16:51:31;;;;;;;1.67;1.27;;;24.20;32.50;;;;;;5070114;28;20060;-76
2023/05/03 16:53:57;;;;;;;1.58;1.45;;;24.10;32.70;;;;;;5069499;28;20461;-76
2023/05/03 16:56:24;;;;;;;2.42;1.50;;;23.90;32.80;;;;;;5070237;28;20035;-77
2023/05/03 16:58:50;;;;;;;2.38;1.25;;;23.80;32.90;;;;;;5069940;28;20029;-76
2023/05/03 17:01:16;;;;;;;5.03;1.90;;;23.60;33.10;;;;;;5070369;28;20375;-77
2023/05/03 17:03:42;;;;;;;3.22;1.65;;;23.50;33.20;;;;;;5070071;28;20090;-77
2023/05/03 17:06:08;;;;;;;2.13;1.60;;;23.40;33.40;;;;;;5069977;28;20472;-78
2023/05/03 17:08:33;;;;;;;2.53;1.58;;;23.30;33.60;;;;;;5069682;28;20035;-77
2023/05/03 17:11:04;;;;;;;1.63;1.50;;;23.10;33.60;;;;;;5070799;28;20086;-78
2023/05/03 17:13:30;;;;;;;2.65;1.35;;;23.00;33.80;;;;;;5070172;28;20089;-77
2023/05/03 17:15:56;;;;;;;1.23;1.13;;;22.80;33.90;;;;;;5069772;28;20538;-77
2023/05/03 17:18:21;;;;;;;1.38;1.27;;;22.80;34.10;;;;;;5069824;28;20025;-77
2023/05/03 17:20:47;;;;;;;1.02;1.00;;;22.70;34.10;;;;;;5069613;28;20383;-78
2023/05/03 17:23:13;;;;;;;1.38;1.10;;;22.60;34.30;;;;;;5069659;28;20052;-77
2023/05/03 17:25:39;;;;;;;1.92;1.30;;;22.50;34.40;;;;;;5069670;28;20032;-78
2023/05/03 17:28:04;;;;;;;1.20;1.10;;;22.40;34.50;;;;;;5069214;28;20057;-78
2023/05/03 17:30:30;;;;;;;2.28;1.30;;;22.30;34.60;;;;;;5069738;28;20027;-77
2023/05/03 17:32:56;;;;;;;2.47;1.23;;;22.20;34.70;;;;;;5069450;28;20020;-77
2023/05/03 17:35:22;;;;;;;1.35;1.08;;;22.10;34.80;;;;;;5069559;28;20412;-78
2023/05/03 17:37:47;;;;;;;1.85;1.30;;;22.00;34.90;;;;;;5069160;28;20112;-77
2023/05/03 17:40:13;;;;;;;1.42;1.33;;;22.00;35.00;;;;;;5060068;28;20043;-77
2023/05/03 17:42:39;;;;;;;1.50;1.33;;;21.90;35.10;;;;;;5054753;28;20029;-77
2023/05/03 17:45:05;;;;;;;1.42;1.20;;;21.80;35.20;;;;;;5055785;28;20093;-77
2023/05/03 17:47:31;;;;;;;3.80;1.25;;;21.70;35.30;;;;;;5055961;28;20119;-77
2023/05/03 17:49:56;;;;;;;3.05;1.40;;;21.70;35.50;;;;;;5056128;28;20112;-78
2023/05/03 17:52:22;;;;;;;1.75;1.10;;;21.60;35.60;;;;;;5055763;28;20032;-77
2023/05/03 17:54:50;;;;;;;1.45;1.13;;;21.60;35.70;;;;;;5034121;28;20471;-77
2023/05/03 17:57:16;;;;;;;2.70;1.17;;;21.50;35.80;;;;;;5034722;28;20025;-78
2023/05/03 17:59:42;;;;;;;3.90;1.42;;;21.40;35.90;;;;;;5033783;28;20135;-76
2023/05/03 18:02:08;;;;;;;3.15;1.30;;;21.40;36.00;;;;;;5037962;28;20037;-77
2023/05/03 18:04:34;;;;;;;2.92;1.30;;;21.30;36.10;;;;;;5044637;28;20459;-78
2023/05/03 18:06:59;;;;;;;1.20;1.10;;;21.30;36.20;;;;;;5044438;28;20078;-77
2023/05/03 18:09:25;;;;;;;4.05;1.52;;;21.20;36.30;;;;;;5044867;28;20116;-78
2023/05/03 18:11:55;;;;;;;2.58;1.60;;;21.20;36.50;;;;;;5044458;28;20017;-77
2023/05/03 18:14:20;;;;;;;2.03;1.63;;;21.10;36.60;;;;;;5044381;28;20013;-77
2023/05/03 18:16:46;;;;;;;2.15;1.90;;;21.00;36.60;;;;;;5045930;28;20021;-76
2023/05/03 18:19:12;;;;;;;3.50;1.60;;;21.00;36.80;;;;;;5044509;28;20036;-76
2023/05/03 18:21:38;;;;;;;3.17;1.90;;;20.90;36.80;;;;;;5044453;28;20028;-77
2023/05/03 18:24:04;;;;;;;2.80;2.20;;;20.90;37.00;;;;;;5047958;28;20028;-76
2023/05/03 18:26:29;;;;;;;5.07;2.40;;;20.80;37.10;;;;;;5054246;28;20025;-76
2023/05/03 18:28:55;;;;;;;5.25;2.30;;;20.80;37.20;;;;;;5055269;28;20048;-77
2023/05/03 18:31:21;;;;;;;3.13;2.25;;;20.70;37.30;;;;;;5047241;28;20036;-76
2023/05/03 18:33:47;;;;;;;2.33;2.08;;;20.70;37.40;;;;;;5045607;28;20036;-78
2023/05/03 18:36:14;;;;;;;2.85;1.92;;;20.60;37.50;;;;;;5044159;28;20456;-77
2023/05/03 18:38:45;;;;;;;4.30;2.13;;;20.60;37.60;;;;;;5044648;28;20025;-77
2023/05/03 18:41:15;;;;;;;2.22;1.83;;;20.60;37.70;;;;;;5048301;28;20023;-77
2023/05/03 18:43:42;;;;;;;3.72;2.50;;;20.50;37.80;;;;;;5055326;28;20211;-77
2023/05/03 18:46:09;;;;;;;4.00;2.17;;;20.40;37.90;;;;;;5053700;28;20117;-77
2023/05/03 18:48:34;;;;;;;3.65;2.13;;;20.40;38.00;;;;;;5054655;28;20039;-78
2023/05/03 18:51:01;;;;;;;3.65;2.38;;;20.30;38.10;;;;;;5050657;28;20112;-77
2023/05/03 18:53:33;;;;;;;4.82;2.28;;;20.30;38.10;;;;;;5054926;28;20371;-77
2023/05/03 18:56:00;;;;;;;4.00;2.25;;;20.30;38.40;;;;;;5054761;28;20533;-77
2023/05/03 18:58:30;;;;;;;3.35;2.13;;;20.20;38.30;;;;;;5055077;28;20032;-77
2023/05/03 19:00:58;;;;;;;3.88;2.20;;;20.20;38.40;;;;;;5054850;28;20029;-77
2023/05/03 19:03:26;;;;;;;2.33;2.05;;;20.20;38.60;;;;;;5055292;28;20029;-77
2023/05/03 19:05:52;;;;;;;4.57;2.35;;;20.20;38.70;;;;;;5054815;28;20029;-76
2023/05/03 19:08:18;;;;;;;4.22;2.50;;;20.10;38.70;;;;;;5054433;28;20040;-76
2023/05/03 19:10:44;;;;;;;3.90;2.20;;;20.10;39.40;;;;;;5054647;28;20371;-76
2023/05/03 19:13:10;;;;;;;2.95;2.40;;;20.10;38.90;;;;;;5036402;28;20028;-78
2023/05/03 19:15:36;;;;;;;4.38;2.67;;;20.00;38.90;;;;;;5041227;28;20033;-78
2023/05/03 19:18:02;;;;;;;6.03;2.60;;;20.00;39.00;;;;;;5043406;28;20031;-78
2023/05/03 19:20:28;;;;;;;2.78;2.33;;;20.00;39.20;;;;;;5044941;28;20020;-78
2023/05/03 19:22:54;;;;;;;3.70;2.60;;;20.00;39.30;;;;;;5041874;28;20021;-78
2023/05/03 19:25:19;;;;;;;3.88;2.90;;;20.00;39.40;;;;;;5042347;28;20028;-77
2023/05/03 19:27:45;;;;;;;4.72;2.55;;;19.90;39.40;;;;;;5037145;28;20480;-78
2023/05/03 19:30:11;;;;;;;4.20;2.65;;;19.90;39.60;;;;;;5033240;28;20025;-78
2023/05/03 19:32:37;;;;;;;2.92;2.38;;;19.90;39.60;;;;;;5034081;28;20483;-78
2023/05/03 19:35:09;;;;;;;2.97;2.20;;;19.80;39.70;;;;;;5043976;28;20434;-77
2023/05/03 19:37:35;;;;;;;2.80;2.25;;;19.80;39.80;;;;;;5054163;28;20025;-77
2023/05/03 19:40:01;;;;;;;3.47;2.35;;;19.80;39.80;;;;;;5054284;28;20514;-78
2023/05/03 19:42:27;;;;;;;2.63;2.38;;;19.80;39.90;;;;;;5053975;28;20020;-78
2023/05/03 19:44:52;;;;;;;3.63;2.10;;;19.80;40.00;;;;;;5052327;28;20041;-77
2023/05/03 19:47:18;;;;;;;6.43;2.38;;;19.70;40.00;;;;;;5054563;28;20036;-78
2023/05/03 19:49:43;;;;;;;2.42;1.92;;;19.70;40.10;;;;;;5053934;28;20040;-77
2023/05/03 19:52:10;;;;;;;4.10;2.42;;;19.70;40.20;;;;;;5053649;28;20033;-77
2023/05/03 19:54:35;;;;;;;3.70;2.60;;;19.70;40.20;;;;;;5053702;28;20515;-78
2023/05/03 19:57:03;;;;;;;5.60;3.22;;;19.70;40.30;;;;;;5053550;28;20100;-77
2023/05/03 19:59:29;;;;;;;5.40;2.83;;;19.70;40.30;;;;;;5053494;28;20029;-78
2023/05/03 20:01:54;;;;;;;4.05;3.20;;;19.70;40.40;;;;;;5053572;28;20031;-78
2023/05/03 20:04:20;;;;;;;5.15;2.90;;;19.60;40.40;;;;;;5052625;28;20086;-77
2023/05/03 20:06:46;;;;;;;4.05;2.28;;;19.60;40.50;;;;;;5052867;28;20029;-77
2023/05/03 20:09:11;;;;;;;4.30;2.47;;;19.60;40.60;;;;;;5052620;28;20364;-77
2023/05/03 20:11:37;;;;;;;5.28;2.22;;;19.60;40.60;;;;;;5052737;28;20471;-77
2023/05/03 20:14:03;;;;;;;2.72;2.25;;;19.60;40.70;;;;;;5052445;28;20364;-76
2023/05/03 20:16:31;;;;;;;2.33;2.10;;;19.60;40.70;;;;;;5052725;28;20025;-78
2023/05/03 20:18:58;;;;;;;2.60;2.10;;;19.60;40.80;;;;;;5052790;28;20112;-77
2023/05/03 20:21:24;;;;;;;4.47;2.30;;;19.50;40.80;;;;;;5052494;28;20383;-77
2023/05/03 20:23:50;;;;;;;2.08;1.88;;;19.50;40.90;;;;;;5052725;28;20112;-77
2023/05/03 20:26:17;;;;;;;2.58;2.08;;;19.50;41.00;;;;;;5052297;28;20056;-77
2023/05/03 20:28:43;;;;;;;3.17;2.00;;;19.50;41.00;;;;;;5052384;28;20049;-77
2023/05/03 20:31:09;;;;;;;4.50;2.13;;;19.50;41.10;;;;;;5052633;28;20360;-76
2023/05/03 20:33:35;;;;;;;3.15;2.20;;;19.50;41.10;;;;;;5053297;28;20383;-78
2023/05/03 20:36:01;;;;;;;4.95;2.22;;;19.40;41.20;;;;;;5053315;28;20024;-79
2023/05/03 20:38:27;;;;;;;2.95;1.90;;;19.40;41.20;;;;;;5053194;28;20471;-79
2023/05/03 20:40:52;;;;;;;3.95;2.70;;;19.40;41.90;;;;;;5053169;28;20025;-77
2023/05/03 20:43:18;;;;;;;4.30;2.97;;;19.40;41.40;;;;;;5053030;28;20106;-79
2023/05/03 20:45:44;;;;;;;5.22;2.90;;;19.40;41.40;;;;;;5053239;28;20721;-79
2023/05/03 20:48:09;;;;;;;4.35;2.80;;;19.30;41.40;;;;;;5053005;28;20064;-78
2023/05/03 20:50:35;;;;;;;3.28;2.40;;;19.30;41.50;;;;;;5052182;28;20116;-79
2023/05/03 20:53:01;;;;;;;2.97;2.50;;;19.30;41.50;;;;;;5053044;28;20119;-79
2023/05/03 20:55:27;;;;;;;2.85;2.40;;;19.30;42.20;;;;;;5052949;28;20108;-78
2023/05/03 20:57:52;;;;;;;3.20;2.25;;;19.30;41.60;;;;;;5052222;28;20056;-78
2023/05/03 21:00:19;;;;;;;3.17;2.20;;;19.30;41.70;;;;;;5052370;28;20161;-79
2023/05/03 21:02:48;;;;;;;3.08;1.90;;;19.20;41.70;;;;;;5053035;28;20451;-78
2023/05/03 21:05:14;;;;;;;2.10;1.80;;;19.20;41.80;;;;;;5052979;28;20025;-78
2023/05/03 21:07:39;;;;;;;3.28;1.90;;;19.20;41.90;;;;;;5052850;28;20040;-77
2023/05/03 21:10:06;;;;;;;1.90;1.80;;;19.20;42.00;;;;;;5052903;28;20032;-78
2023/05/03 21:12:32;;;;;;;2.45;1.90;;;19.10;42.00;;;;;;5052894;28;20064;-76
2023/05/03 21:14:57;;;;;;;2.53;2.13;;;19.10;42.10;;;;;;5054557;28;20064;-80
2023/05/03 21:17:23;;;;;;;2.15;1.90;;;19.00;42.10;;;;;;5056905;28;20078;-76
2023/05/03 21:19:48;;;;;;;1.90;1.70;;;19.00;42.20;;;;;;5056708;28;20025;-76
2023/05/03 21:22:14;;;;;;;3.63;1.77;;;19.00;42.20;;;;;;5056784;28;20463;-77
2023/05/03 21:24:40;;;;;;;4.07;2.25;;;19.00;42.30;;;;;;5056508;28;20441;-77
2023/05/03 21:27:05;;;;;;;3.03;1.83;;;19.00;42.40;;;;;;5056140;28;20028;-76
2023/05/03 21:29:31;;;;;;;2.63;1.90;;;18.90;42.40;;;;;;5056324;28;20041;-77
2023/05/03 21:31:57;;;;;;;4.28;2.20;;;18.90;42.40;;;;;;5056472;28;20084;-77
2023/05/03 21:34:22;;;;;;;3.72;1.88;;;18.90;42.50;;;;;;5056438;28;20033;-77
2023/05/03 21:36:48;;;;;;;2.80;1.80;;;18.90;42.60;;;;;;5056030;28;20151;-77
2023/05/03 21:39:14;;;;;;;2.67;2.00;;;18.80;42.60;;;;;;5056168;28;20025;-76
2023/05/03 21:41:39;;;;;;;2.80;1.75;;;18.80;42.70;;;;;;5056083;28;20099;-78
2023/05/03 21:44:05;;;;;;;2.67;2.08;;;18.80;42.70;;;;;;5056331;28;20433;-77
2023/05/03 21:46:31;;;;;;;3.72;2.03;;;18.80;42.80;;;;;;5055039;28;20032;-78
2023/05/03 21:48:57;;;;;;;3.10;1.98;;;18.70;42.80;;;;;;5055985;28;20182;-78
2023/05/03 21:51:23;;;;;;;2.15;1.90;;;18.70;42.90;;;;;;5056220;28;20082;-78
2023/05/03 21:53:49;;;;;;;2.03;1.80;;;18.70;42.90;;;;;;5055927;28;20025;-77
2023/05/03 21:56:15;;;;;;;2.85;1.75;;;18.70;42.90;;;;;;5055756;28;20033;-78
2023/05/03 21:58:44;;;;;;;2.38;1.98;;;18.70;43.00;;;;;;5056365;28;20078;-78
2023/05/03 22:01:10;;;;;;;2.85;1.80;;;18.60;43.10;;;;;;5056287;28;20080;-78
2023/05/03 22:03:36;;;;;;;2.10;1.77;;;18.60;43.10;;;;;;5056092;28;20052;-77
2023/05/03 22:06:02;;;;;;;2.30;1.90;;;18.60;43.20;;;;;;5055768;28;20033;-78
2023/05/03 22:08:28;;;;;;;2.25;1.90;;;18.60;43.20;;;;;;5055566;28;20043;-76
2023/05/03 22:10:55;;;;;;;2.50;1.88;;;18.60;43.30;;;;;;5055712;28;20349;-77
2023/05/03 22:13:21;;;;;;;2.05;1.85;;;18.60;43.30;;;;;;5055826;28;20474;-77
2023/05/03 22:15:47;;;;;;;2.45;1.80;;;18.60;43.40;;;;;;5055662;28;20029;-78
2023/05/03 22:18:13;;;;;;;1.98;1.80;;;18.50;43.40;;;;;;5055815;28;20489;-77
2023/05/03 22:20:39;;;;;;;4.55;1.85;;;18.50;43.40;;;;;;5055519;28;20036;-78
2023/05/03 22:23:04;;;;;;;1.90;1.75;;;18.50;43.50;;;;;;5055332;28;20029;-77
2023/05/03 22:25:30;;;;;;;2.05;1.80;;;18.50;43.60;;;;;;5056073;28;20083;-77
2023/05/03 22:27:56;;;;;;;2.33;1.70;;;18.50;43.60;;;;;;5054976;28;20143;-77
2023/05/03 22:30:21;;;;;;;2.33;1.83;;;18.40;43.70;;;;;;5055393;28;20033;-77
2023/05/03 22:32:48;;;;;;;3.05;2.00;;;18.40;43.70;;;;;;5055272;28;20486;-77
2023/05/03 22:35:14;;;;;;;2.25;1.85;;;18.30;43.80;;;;;;5055425;28;20043;-77
2023/05/03 22:37:40;;;;;;;1.70;1.60;;;18.30;43.90;;;;;;5055064;28;20075;-77
2023/05/03 22:40:07;;;;;;;3.38;2.10;;;18.30;44.00;;;;;;5055335;28;20046;-78
2023/05/03 22:42:33;;;;;;;2.33;1.60;;;18.30;44.10;;;;;;5054967;28;20035;-77
2023/05/03 22:44:59;;;;;;;1.85;1.65;;;18.20;44.00;;;;;;5055109;28;20041;-77
2023/05/03 22:47:25;;;;;;;2.33;1.70;;;18.20;44.10;;;;;;5055092;28;20025;-77
2023/05/03 22:49:51;;;;;;;2.60;1.90;;;18.20;44.10;;;;;;5055236;28;20049;-77
2023/05/03 22:52:17;;;;;;;4.93;2.00;;;18.20;44.10;;;;;;5054857;28;20067;-76
2023/05/03 22:54:43;;;;;;;4.30;2.08;;;18.10;44.10;;;;;;5055153;28;20032;-77
2023/05/03 22:57:09;;;;;;;2.47;1.90;;;18.10;44.20;;;;;;5054932;28;20029;-77
2023/05/03 22:59:34;;;;;;;2.47;1.55;;;18.10;44.30;;;;;;5055244;28;20409;-77
2023/05/03 23:02:00;;;;;;;2.45;1.92;;;18.10;44.30;;;;;;5054730;28;20094;-77
2023/05/03 23:04:25;;;;;;;2.22;2.00;;;18.10;44.40;;;;;;5054688;28;20033;-77
2023/05/03 23:06:52;;;;;;;1.90;1.70;;;18.00;44.40;;;;;;5054580;28;20048;-77
2023/05/03 23:09:17;;;;;;;2.15;1.55;;;18.00;44.40;;;;;;5054717;28;20037;-77
2023/05/03 23:11:43;;;;;;;2.67;1.90;;;18.00;44.50;;;;;;5053941;28;20136;-77
2023/05/03 23:14:09;;;;;;;1.77;1.65;;;18.00;44.60;;;;;;5054925;28;20021;-77
2023/05/03 23:16:34;;;;;;;1.98;1.67;;;17.90;44.60;;;;;;5053175;28;20029;-78
2023/05/03 23:19:00;;;;;;;3.28;1.77;;;17.90;44.70;;;;;;5053238;28;20426;-78
2023/05/03 23:21:25;;;;;;;2.70;1.83;;;17.90;44.70;;;;;;5054130;28;20029;-77
2023/05/03 23:23:51;;;;;;;2.00;1.80;;;17.90;44.70;;;;;;5054619;28;20036;-77
2023/05/03 23:26:17;;;;;;;2.45;1.63;;;17.90;44.80;;;;;;5054533;28;20437;-77
2023/05/03 23:28:42;;;;;;;2.10;1.70;;;17.90;44.80;;;;;;5053973;28;20059;-77
2023/05/03 23:31:08;;;;;;;3.85;1.83;;;17.80;44.80;;;;;;5054186;28;20025;-78
2023/05/03 23:33:34;;;;;;;2.78;1.80;;;17.80;44.80;;;;;;5052997;28;20526;-77
2023/05/03 23:35:59;;;;;;;2.00;1.80;;;17.80;44.90;;;;;;5053950;28;20029;-78
2023/05/03 23:38:25;;;;;;;3.65;2.28;;;17.70;45.00;;;;;;5053650;28;20436;-77
2023/05/03 23:40:51;;;;;;;4.03;2.97;;;17.70;45.00;;;;;;5054246;28;20057;-77
2023/05/03 23:43:16;;;;;;;7.55;3.38;;;17.70;45.00;;;;;;5054191;28;20070;-77
2023/05/03 23:45:42;;;;;;;3.70;2.47;;;17.70;45.10;;;;;;5052997;28;20033;-77
2023/05/03 23:48:07;;;;;;;3.58;2.30;;;17.60;45.10;;;;;;5053450;28;20122;-77
2023/05/03 23:50:33;;;;;;;2.55;2.20;;;17.70;45.20;;;;;;5054087;28;20025;-77
2023/05/03 23:53:00;;;;;;;3.30;2.05;;;17.60;45.20;;;;;;5054005;28;20371;-77
2023/05/03 23:55:26;;;;;;;2.85;2.08;;;17.60;45.20;;;;;;5053962;28;20021;-78
2023/05/03 23:57:51;;;;;;;3.90;2.20;;;17.60;45.20;;;;;;5053734;28;20021;-77
